AK Observations

PABA 230540Z AUTO 28018KT 2SM -SN BR FEW019 OVC026 M25/M27 A3026 RMK AO2 P0000 FZRANO TSNO PACV 230542Z 11005KT 10SM SCT022 OVC049 M01/M03 A2964 RMK AO2 SNE15 P0000 T10111028 PAEH 230525Z AUTO 02019KT 10SM BKN015 M18/M21 A3025 RMK AO2 PK WND 01026/0516 SLP267 $ PAFA 230541Z 00000KT 2 1/2SM -SN BR SCT025 OVC034 M22/M24 A3006 RMK AO2 T12171244 PAGM 230529Z AUTO 09016G24KT 2 1/2SM -SN BR BKN024 OVC032 M16/M18 A3035 RMK AO2PK WND 10029/0505 VIS 2V4 P0000 FZRANO PAGM 230539Z AUTO 09016G23KT 3SM -SN BR BKN020 OVC031 M16/M18 A3035 RMK AO2 PK WND 10029/0505 P0000 FZRANO PAGN 230530Z AUTO 05004KT 3SM -SN BR SCT016 BKN028 OVC042 01/M01 A2988 RMK AO2 RAE03SNB03 P0001 FZRANO PAIN 230541Z AUTO 01008KT 4SM -SN BKN021 OVC027 M24/M27 A2986 RMK AO2 P0000 FZRANO PAKH 230531Z AUTO 33016G19KT 280V350 10SM SCT022 SCT055 BKN085 M07/M09 A2965 RMK AO2 WSHFT 0446 FZRANO $ PANN 230539Z AUTO 29005KT 3SM -SN OVC032 M24/M27 A3008 RMK AO2 P0001 T12391272 TSNO PAOM 230532Z 00000KT 9SM SCT016 M29/M31 A3035 RMK AO2 T12891311 $ PAPH 230541Z AUTO 06020KT 3SM -SN OVC028 M15/M18 A3004 RMK AO2 P0000 FZRANO PAPH 230544Z AUTO 06021KT 2 1/2SM -SN SCT022 OVC030 M15/M18 A3004 RMK AO2 VIS 2V4 P0000 FZRANO PASI 230529Z 14009KT 1 3/4SM -SN BR FEW012 OVC019 02/M01 A2984 RMK AO2 RAB0456E0457SNB0457 P0001 T00171006 PASV 230540Z AUTO 19006KT 2 1/2SM BR BKN014 M26/M30 A2987 RMK AO2 SLP201 PAVC 230526Z AUTO 31031G48KT 3SM HZ BKN008 OVC014 M06/M10 A3007 RMK AO2 PK WND 31057/0513 CIG 007V012 PWINO FZRANO PAVC 230535Z AUTO 31036G54KT 2 1/2SM HZ BKN010 OVC014 M06/M10 A3006 RMK AO2 PK WND 31057/0513 VIS 1 3/4V4 CIG 007V013 PWINO FZRANO PAAD 230535Z AUTO 25012KT 10SM BKN070 OVC095 M29/M32 A3028 RMK AO2 T12901321 PAUT 230535Z AUTO 34029G36KT 10SM OVC033 M02/M09 A3028 RMK AO2 T10251088 PABA 230521Z AUTO 27017KT 1 1/4SM -SN BR BKN017 OVC024 M25/M27 A3026 RMK AO2 P0000 FZRANO TSNO PADQ 230515Z AUTO 30018G25KT 9SM -SN BKN029 OVC036 M02/M05 A2958 RMK AO2 PK WND29030/0454 P0000 T10171050 TSNO PAEH 230505Z AUTO 01019KT 10SM SCT015 M18/M20 A3025 RMK AO2 SLP267 $ PAGM 230511Z AUTO 09018G29KT 1 3/4SM -SN BR BKN016 OVC024 M16/M18 A3035 RMK AO2PK WND 10029/0505 VIS 1 1/4V2 P0000 FZRANO PAGM 230520Z AUTO 09017G27KT 3SM -SN BR FEW016 BKN024 OVC032 M16/M18 A3035 RMK AO2 PK WND 10029/0505 P0000 FZRANO PAGN 230512Z AUTO 10003KT 1 3/4SM -SN BR SCT014 BKN021 OVC026 01/M01 A2989 RMK AO2 VIS 1V4 RAE03SNB03 P0000 FZRANO PAHN 230519Z AUTO 29009KT 2SM -SN BR OVC015 M04/M05 A2987 RMK AO2 P0000 T10391050 TSNO PAIN 230522Z AUTO 01007KT 2 1/2SM -SN BKN028 OVC034 M24/M27 A2986 RMK AO2 P0000FZRANO PAKH 230506Z AUTO 33015G25KT 10SM OVC024 M07/M10 A2965 RMK AO2 WSHFT 0446 FZRANO $ PALU 230508Z AUTO 21001KT 10SM BKN019 M22/M24 A3034 RMK AO2 SLP274 PAMY 230521Z AUTO 14006KT 2 1/2SM -SN BR BKN016 OVC035 M13/M15 A3034 RMK AO2 P0000 FZRANO PANN 230511Z AUTO 28005KT 2SM -SN OVC042 M23/M27 A3007 RMK AO2 P0000 T12331272 TSNO PASI 230513Z 16007KT 9SM -SN BKN023 OVC034 02/M01 A2983 RMK AO2 RAB0456E0457SNB0457 P0000 T00221006 PASV 230520Z AUTO 31009G19KT 3SM BR BKN013 M27/M30 A2987 RMK AO2 SLP201 PATC 230516Z AUTO 05011KT 10SM BKN018 M24/M26 A3034 RMK AO2 SLP290 $ PATK 230515Z 02004KT 1 3/4SM -SN OVC029 M08/M11 A2966 RMK AO2 P0001 T10781106 PAAD 230515Z AUTO 25013KT 10SM SCT080 OVC095 M29/M32 A3028 RMK AO2 T12901321 PAUT 230515Z AUTO 35028G39KT 10SM OVC033 M03/M09 A3028 RMK AO2 T10261089 PAAK 230456Z AUTO 32003KT 10SM OVC038 01/M05 A3055 RMK AO2 SLP345 T00111050 FZRANO PAAQ 230453Z AUTO 00000KT 10SM SCT100 OVC120 M09/M11 A2964 RMK AO2 SLP043 T10941106 TSNO PABA 230452Z AUTO 27017KT 1SM -SN BR OVC019 M25/M27 A3025 RMK AO2 SLP231 P0000 T12501272 FZRANO TSNO PABA 230448Z AUTO 27016KT 1SM -SN BR OVC019 M25/M27 A3026 RMK AO2 P0000 FZRANO TSNO PABE 230453Z 33007KT 10SM CLR M22/M25 A3032 RMK AO2 SLP270 T12221250 PABI 230453Z 29004KT 10SM OVC018 M23/M25 A2995 RMK AO2 SLP207 T12281250 PABL 230456Z AUTO 00000KT 10SM CLR M32/M34 A3033 RMK AO2 SLP275 T13171344 FZRANO PABR 230453Z 00000KT 10SM CLR M29/M32 A3032 RMK AO2 SLP271 T12891317 PABT 230453Z 19003KT 4SM -SN BR FEW046 OVC060 M34/ A3014 RMK AO2 SLP244 T1344 PABV 230456Z AUTO 21005KT 10SM CLR M09/M12 A2967 RMK AO2 SLP056 T10941122 FZRANO $ PACD 230453Z AUTO 35028G35KT 10SM OVC027 M06/M10 A3017 RMK AO2 PK WND 35036/0420 SLP219 T10561100 TSNO PACM 230456Z AUTO 10SM -SN OVC065 M17/M19 A3037 RMK AO2 SNB26 SLP281 P0000 T11721194 FZRANO $ PACV 230453Z 15004KT 7SM -SN BKN022 OVC038 01/M01 A2962 RMK AO2 SNB02 SLP032 P0001 T00061006 PACZ 230455Z AUTO 23006KT 10SM -SN OVC021 M15/M18 A3028 RMK AO2 SNB0355 SLP272 P0000 T11551178 PADE 230504Z AUTO 26015KT 4SM HZ SCT025 OVC085 M22/ A3030 RMK AO2 T1222 TSNO PADE 230453Z AUTO 25015KT 6SM HZ BKN021 BKN090 M23/ A3030 RMK AO2 UPB03E05SNE03B09E33 SLP261 P0000 T1228 TSNO PADK 230456Z AUTO 15008KT 10SM SCT030 OVC035 02/M04 A3050 RMK AO2 SLP328 T00221039 FZRANO PADL 230456Z 01012KT 10SM CLR M18/M25 A3012 RMK AO2 SLP204 T11831250 PADM 230456Z AUTO 00000KT 10SM CLR M23/M27 A2957 RMK AO2 SLP023 T12331267 FZRANO PADQ 230453Z 29020G28KT 8SM -SN SCT030 BKN036 OVC055 M02/M05 A2957 RMK AO2 PK WND 28028/0453 SLP014 P0000 T10171050 PAED 230456Z AUTO 32003KT 10SM OVC110 M08/M10 A2965 RMK AO2 SLP039 T10841105 PAEH 230545Z AUTO 01016KT 10SM SCT015 M18/M20 A3025 RMK AO2 PK WND 01026/0516 SLP269 $ PAEH 230455Z AUTO 01021G27KT 10SM BKN015 M18/M21 A3025 RMK AO2 PK WND 01029/0402 SLP267 T11791208 $ PAEI 230456Z 00000KT 3SM -SN BR BKN008 BKN045 M23/M26 A3004 RMK SLPNO ALSTG ESTMD RVRNO $ PAEM 230456Z AUTO 00000KT 10SM CLR M23/M26 A3036 RMK AO2 SLP342 T12331256 FZRANO PAEN 230453Z 34003KT 10SM BKN070 OVC085 M08/M11 A2968 RMK AO2 SLP052 T10781106 PAFA 230453Z 00000KT 3SM -SN BR OVC028 M22/M24 A3005 RMK AO2 SLP194 T12221244 PAFB 230458Z 00000KT 3SM R25R/4000FT -SN FEW005 OVC070 M23/M25 A3006 RMK AO2A SNE26SNB30E50 SLP200 P0000 T12301255 PAFE 230456Z AUTO 10008G15KT 10SM OVC060 01/M01 A2990 RMK AO2 SLP137 T00111011 FZRANO PAFM 230456Z AUTO 31003KT 10SM CLR M42/ A3026 RMK AO2 SLP268 T1417 FZRANO PAFS 230501Z AUTO 00000KT 4SM HZ CLR M33/M37 A3014 RMK AO2 SLP232 T13331367 FZRANO PAGA 230456Z AUTO 00000KT 8SM CLR M38/ A3029 RMK AO2 SLP267 T1378 FZRANO PAGK 230453Z AUTO 00000KT 6SM BR CLR M23/M26 A2976 RMK AO2 SLP159 T12331256 TSNO $ PAGL 230456Z AUTO 32003KT 10SM CLR M27/M29 A3037 RMK AO2 SLP279 T12671294 FZRANO PAGM 230456Z AUTO 10020G25KT 2SM -SN BR BKN016 BKN027 OVC034 M16/M18 A3035 RMK AO2 SLP284 P0000 T11561178 FZRANO PAGN 230456Z AUTO 07006KT 10SM -RA BKN026 BKN033 OVC047 01/M01 A2988 RMK AO2 RAE21B39UPB37E54SNB04E37 SLP108 P0000 T00061006 FZRANO PAGS 230456Z AUTO 14005KT 10SM BKN060 OVC085 01/M03 A2984 RMK AO2 SLP104 T00061033 FZRANO PAGY 230453Z AUTO 04003KT 10SM OVC024 M03/M07 A2986 RMK AO2 SLP110 T10281072 TSNO $ PAHC 230456Z AUTO 00000KT 10SM CLR M28/M31 A3030 RMK AO2 SLP265 T12781306 FZRANO PAHL 230456Z AUTO 00000KT 10SM CLR M43/ A3026 RMK AO2 SLP261 T1428 FZRANO PAHN 230546Z AUTO 29008KT 3SM -SN BR OVC013 M04/M05 A2987 RMK AO2 P0000 T10391050 TSNO PAHN 230454Z AUTO 29008KT 1SM -SN BR VV012 M04/M05 A2986 RMK AO2 SLP113 P0001 T10441050 TSNO PAHO 230453Z 06005KT 10SM OVC021 M05/M09 A2965 RMK AO2 SLP043 T10501089 PAIG 230456Z AUTO 32004KT 10SM CLR M21/M26 A3002 RMK AO2 SLP176 T12111256 FZRANO $ PAII 230456Z AUTO 36014G23KT 10SM CLR M19/M23 A3007 RMK AO2 SLP184 T11891233 FZRANO PAIL 230453Z 30011KT 10SM FEW020 M20/M26 A2989 RMK AO2 SLP127 T12001256 PAIM 230455Z AUTO 00000KT 10SM CLR M36/M40 A3002 RMK AO2 SLP256 T13631400 PAIN 230456Z AUTO 36006KT 4SM -SN SCT026 OVC037 M24/M27 A2985 RMK AO2 SLP180 P0000 T12391267 FZRANO PAJC 230459Z AUTO 26015G26KT 9SM -SN FEW017 BKN024 OVC035 M07/M12 A2995 RMK AO2 PK WND 24028/0435 SLP141 P0000 T10721122 FZRANO PAJN 230453Z 07009KT 9SM FEW005 BKN033 OVC095 00/M01 A2987 RMK AO2 SNE53 SLP114 OCNL BINOVC P0001 T00001006 PAJZ 230456Z AUTO 34012G21KT 8SM CLR M22/M27 A3014 RMK AO2 PK WND 35031/0411 SLP213 T12221272 FZRANO $ PAKH 230456Z AUTO 31018G23KT 10SM FEW019 BKN024 OVC065 M07/M10 A2965 RMK AO2 PK WND 27028/0415 SLP041 T10721100 FZRANO $ PAKI 230456Z AUTO 35009KT 10SM BKN031 OVC055 M18/M21 A3036 RMK AO2 SNB36E47 SLP284 P0000 T11781206 FZRANO PAKK 230456Z AUTO 00000KT 10SM OVC025 M26/M29 A3028 RMK AO2 SLP271 T12611289 FZRANO PAKN 230454Z 35014KT 10SM CLR M21/M26 A3001 RMK AO2 PK WND 35028/0415 SLP166 T12061256 PAKP 230456Z AUTO 05010KT 5SM -SN OVC060 M32/M35 A2992 RMK AO2 SLP243 P0000 T13171350 FZRANO PAKT 230453Z 16007KT 10SM BKN018 OVC025 02/01 A2997 RMK AO2 SLP149 T00220011 $ PAKV 230453Z AUTO 23003KT 10SM CLR M34/ A3030 RMK AO2 SLP270 T1344 TSNO PAKW 230453Z AUTO 13007KT 10SM BKN120 02/M02 A2989 RMK AO2 SLP123 T00171022 TSNO PALG 230456Z AUTO 00000KT 10SM CLR M24/M28 A3030 RMK AO2 SLPNO T12441283 FZRANO PALH 230453Z 02009KT 10SM BKN070 M08/M11 A2967 RMK AO2 SLP049 T10781111 PALU 230455Z AUTO 21002KT 10SM FEW019 M22/M25 A3034 RMK AO2 SLP273 T12211246 PAMB 230456Z AUTO 04008KT 10SM CLR M19/M24 A3011 RMK AO2 SLP203 T11941239 FZRANO $ PAMC 230453Z AUTO 31005KT 10SM CLR M27/M32 A3018 RMK AO2 SLP236 T12671322 TSNO PAMD 230457Z AUTO 15009KT 10SM FEW038 01/M03 A2960 RMK AO2 SLP012 T00061033 FZRANO PAMH 230456Z AUTO VRB04KT 9SM -SN OVC049 M27/M31 A3007 RMK AO2 SLP208 P0000 T12671306 FZRANO PAMK 230456Z AUTO 07006KT 10SM OVC027 M23/M26 A3035 RMK AO2 SLP280 T12331261 FZRANO $ PAMM 230456Z AUTO 12004KT 10SM CLR 02/M01 A2998 RMK AO2 SLP144 T00221006 FZRANO PNO $ PAMO 230501Z AUTO 35004KT 9SM CLR M24/M27 A3032 RMK AO2 SLP282 T12441267 FZRANO PAMR 230453Z 35004KT 10SM BKN070 OVC110 M08/M11 A2966 RMK AO2 SLP046 T10781106 $ PANC 230453Z 36009KT 10SM BKN070 BKN110 M07/M12 A2966 RMK AO2 SLP046 T10721117 $ PANI 230456Z AUTO 31004KT 10SM CLR M26/M29 A3029 RMK AO2 SLP226 T12611294 FZRANO PANN 230453Z AUTO 29005KT 4SM -SN BKN060 OVC075 M23/M27 A3007 RMK AO2 SLP201 P0000 T12331272 TSNO PANT 230453Z AUTO 13005KT 10SM CLR 02/01 A2996 RMK SLP149 T00220011 TSNO VIA AUTODIAL PANW 230456Z AUTO 35012G19KT 10SM CLR M22/M27 A3005 RMK AO2 PK WND 34031/0410 SLP196 T12221267 FZRANO PAOH 230456Z AUTO 08004KT 10SM BKN032 BKN047 OVC060 M02/M02 A2983 RMK AO2 SLP103 T10221022 FZRANO PAOM 230453Z 00000KT 10SM OVC016 M28/M30 A3035 RMK AO2 SLP279 T12781300 $ PAOM 230453Z 00000KT 10SM OVC016 M28/M30 A3035 RMK SLP279 T12781300 $ VIA AUTODIAL PAOR 230453Z 31003KT 2SM -SN BR BKN020 OVC031 M21/M22 A2978 RMK AO2 SLP157 T12061222 PAOT 230453Z 16003KT 10SM FEW100 M28/M32 A3032 RMK AO2 SLP266 T12831322 $ PAOU 230456Z AUTO 9SM -SN OVC022 M06/M09 A3012 RMK AO2 SLP200 P0000 T10561089 FZRANO $ PAPB 230453Z AUTO 00000KT 10SM FEW029 OVC045 M02/M03 A3045 RMK AO2 SNE47 SLP300 P0000 T10221028 TSNO PAPG 230456Z 00000KT 10SM FEW120 M01/M01 A2994 RMK AO2 SLP141 T10111011 PAPH 230549Z AUTO 06020G26KT 3SM -SN SCT019 OVC027 M15/M18 A3005 RMK AO2 PK WND06026/0549 P0000 FZRANO PAPH 230456Z AUTO 06017KT 8SM -SN OVC030 M14/M17 A3003 RMK AO2 SLP173 P0000 T11391167 FZRANO PAPM 230456Z AUTO 32022KT 10SM CLR M20/M24 A3028 RMK AO2 PK WND 32031/0406 SLP258 T12001239 FZRANO PAPO 230456Z AUTO 00000KT 6SM HZ BKN021 M21/M24 A3034 RMK AO2 SLP274 T12111239 FZRANO PAQT 230453Z AUTO 26004KT 6SM UP OVC090 M32/M34 A3033 RMK AO2 SLP274 P0000 T13171344 TSNO PARS 230456Z AUTO 25004KT 10SM CLR M28/M31 A3031 RMK AO2 SLP270 T12781306 FZRANO $ PARY 230456Z AUTO 25006KT 10SM CLR M31/M35 A3014 RMK AO2 SLP243 T13061350 FZRANO PASA 230456Z AUTO 09013KT 9SM -SN FEW027 BKN040 OVC065 M17/M19 A3037 RMK AO2 SLP288 P0000 T11671194 FZRANO $ PASC 230453Z 25010KT 9SM OVC085 M29/M32 A3029 RMK AO2 SNE52 SLP258 P0000 T12891317 PASD 230456Z AUTO 01035G41KT 5SM -SN OVC022 M05/M08 A2996 RMK AO2 PK WND 01041/0454 SLP148 P0000 T10501083 FZRANO PASH 230545Z AUTO 25011KT 9SM -SN SCT014 BKN024 OVC060 M22/M24 A3037 RMK AO2 SNB36 P0000 FZRANO PASH 230456Z AUTO 28010KT 10SM BKN014 OVC075 M21/M23 A3037 RMK AO2 SLP286 T12061233 FZRANO PASI 230548Z 11009KT 1 1/2SM -SN BR OVC013 01/01 A2984 RMK AO2 RAB0456E0457SNB0457 P0001 PASI 230453Z 11010KT 9SM SCT036 BKN043 OVC090 02/00 A2982 RMK AO2 UPB24E25SNE24B25E51 SLP098 P0001 T00220000 PASK 230456Z AUTO 00000KT 10SM CLR M37/ A3033 RMK AO2 SLP269 T1372 FZRANO $ PASL 230456Z AUTO VRB06KT 10SM CLR M26/M30 A3022 RMK AO2 SLP231 T12561300 FZRANO PASM 230456Z AUTO 01007KT 10SM CLR M25/M28 A3032 RMK AO2 SLP289 T12501278 FZRANO PASN 230453Z AUTO 27003KT 8SM OVC047 M03/M03 A3044 RMK AO2 SLP309 T10281033 TSNO PASO 230453Z AUTO 00000KT 10SM BKN022 BKN047 OVC055 M04/M08 A2966 RMK AO2 SLP043 T10391078 TSNO PASV 230455Z AUTO 23003KT 4SM BR OVC015 M26/M29 A2987 RMK AO2 SLP201 T12631292 PASX 230456Z AUTO 00000KT 9SM -SN FEW048 SCT060 BKN095 M09/M11 A2970 RMK AO2 SLP066 P0000 T10941111 FZRANO PASY 230458Z AUTO 16013KT 7SM BKN026 BKN065 03/01 A3033 RMK AO2 CIG 026V065 BKN026 V SCT SLP275 T00300005 $ PATA 230452Z 27004KT 10SM FEW060 M36/ A3018 RMK AO2 SLP233 T1356 PNO PATC 230455Z AUTO 05008KT 10SM BKN014 M24/M26 A3034 RMK AO2 SLP291 T12411262 $ PATK 230503Z 36004KT 2SM -SN BR OVC037 M08/M10 A2966 RMK AO2 P0000 T10781100 PATK 230453Z 36003KT 3SM -SN BR OVC043 M08/M10 A2966 RMK AO2 SLP051 P0002 T10781100 PATL 230455Z AUTO 00000KT 10SM CLR M27/M31 A3011 RMK AO2 SLP252 T12721310 PATO 230504Z AUTO 00000KT 4SM -SN BR FEW030 OVC041 M07/M09 A2964 RMK AO2 P0000 T10721089 TSNO PATO 230453Z AUTO 00000KT 2 1/2SM -SN BR OVC039 M07/M09 A2964 RMK AO2 SNB00 SLP038 P0000 T10721089 TSNO PATQ 230456Z AUTO 00000KT 6SM -SN M35/ A3032 RMK AO2 SLP274 P0000 T1350 FZRANO TSNO $ PAUN 230456Z AUTO 10004KT 10SM CLR M28/M31 A3035 RMK AO2 SLP283 T12781311 FZRANO PAVC 230548Z AUTO 31033G44KT 4SM HZ BKN010 OVC016 M06/M11 A3008 RMK AO2 PK WND 31057/0513 CIG 007V012 PWINO FZRANO PAVC 230456Z AUTO 30029G40KT 5SM HZ OVC014 M06/M11 A3006 RMK AO2 PK WND 30054/0419 SLP184 T10611106 PWINO FZRANO PAVD 230456Z 09003KT 10SM OVC060 M08/M12 A2968 RMK AO2 SLP076 0451Z WEA: NONE TWR WND 06004KT T10831122 $ PAVL 230453Z AUTO 11004KT 7SM OVC090 M26/M29 A3032 RMK AO2 SLP268 T12611294 TSNO $ PAWD 230453Z AUTO 01012KT 10SM OVC060 M06/M10 A2959 RMK AO2 SLP020 T10611100 TSNO $ PAWG 230456Z 08009KT 10SM FEW060 SCT090 02/00 A2996 RMK AO2 SLP146 T00170000 PAWI 230453Z AUTO 13005KT 10SM FEW002 M35/ A3029 RMK AO2 SLP261 T1350 TSNO PAWN 230456Z AUTO 00000KT 8SM FEW100 M37/ A3035 RMK AO2 SLP296 T1372 FZRANO PAZK 230456Z AUTO 05004KT 10SM SCT095 A2951 RMK AO2 SLPNO FZRANO $ PFYU 230456Z AUTO 00000KT 5SM -SN BR OVC065 M23/M25 RMK AO2 SLPNO P0000 T12281250 FZRANO $ PPIZ 230456Z AUTO 18006KT 10SM CLR M29/M32 A3034 RMK AO2 SLP277 T12941322 FZRANO TSNO PAFR 230458Z AUTO 00000KT 8SM SCT110 BKN130 M13/M15 A2962 RMK AO2 SLP045 T11321147 $ PAGH 230456Z AUTO 15005KT 5SM HZ CLR M41/ A3027 RMK AO2 SLP266 T1406 FZRANO PAIK 230456Z AUTO 34004KT 10SM CLR M33/M37 A3031 RMK AO2 SLP276 T13331367 FZRANO PAIW 230456Z AUTO 07004KT 10SM OVC023 M23/M25 A3041 RMK AO2 SLP298 T12281250 FZRANO PAKF 230501Z AUTO 34026G34KT 8SM -SN BKN025 OVC031 M04/M09 A3019 RMK AO2 PK WND 32045/0442 SLP320 P0000 T10441094 FZRANO PATE 230456Z AUTO 10006KT 10SM CLR M26/M29 A3035 RMK AO2 SLP292 T12611289 FZRANO PAVA 230456Z AUTO 12008KT 8SM -SN OVC026 M18/M20 A3035 RMK AO2 SLP369 P0000 T11781200 FZRANO PAWM 230456Z AUTO 36009KT 10SM CLR M27/M29 A3032 RMK AO2 SLP281 T12671294 FZRANO PFEL 230456Z AUTO 00000KT 10SM FEW025 M24/M28 A3034 RMK AO2 SLP277 T12391278 FZRANO PFKT 230456Z AUTO 04009KT 10SM CLR M25/M28 A3040 RMK AO2 SLP295 T12501278 FZRANO PFNO 230456Z AUTO 02003KT 10SM CLR M36/ A3032 RMK AO2 SLP271 T1361 FZRANO PFSH 230456Z AUTO 00000KT 7SM OVC023 M26/M28 A3036 RMK AO2 SLP281 T12561283 PWINO FZRANO $ PAAD 230455Z AUTO 25011KT 10SM OVC080 M29/M32 A3027 RMK AO2 T12901321 PAHX 230456Z AUTO 11003KT 10SM CLR M32/M35 A3031 RMK AO2 SLP267 T13221350 FZRANO PANA 230456Z AUTO 34005KT 10SM CLR M23/M26 A3032 RMK AO2 SLP267 T12331256 FZRANO PAQH 230456Z AUTO 34010KT 10SM CLR M21/M24 A3032 RMK AO2 SLP267 T12111239 PWINO FZRANO $ PAUT 230455Z AUTO 34022G32KT 10SM OVC033 M03/M09 A3028 RMK AO2 T10261086 PFCL 230456Z AUTO 05012KT 10SM M18/M23 A3011 RMK AO2 SLPNO T11831228 FZRANO TSNO PFKW 230456Z AUTO 32004KT 10SM CLR M23/M26 A3031 RMK AO2 SLP266 T12281256 FZRANO PFWS 230456Z AUTO 35019G29KT 10SM CLR M20/M24 A3008 RMK AO2 PK WND 34029/0447 SLP191 T12001244 FZRANO PPIT 230456Z AUTO 35007KT 10SM CLR M22/M24 A3032 RMK AO2 SLP269 T12171239 FZRANO TSNO